sensor_id;sensor_type;location;lat;lon;timestamp;pressure;altitude;pressure_sealevel;temperature
15079;BMP180;6932;51.438;5.470;2022-10-18T00:02:04;102176.00;;;20.40
15079;BMP180;6932;51.438;5.470;2022-10-18T00:04:30;102169.00;;;20.40
15079;BMP180;6932;51.438;5.470;2022-10-18T00:06:56;102174.00;;;20.40
15079;BMP180;6932;51.438;5.470;2022-10-18T00:09:22;102165.00;;;20.40
15079;BMP180;6932;51.438;5.470;2022-10-18T00:11:48;102164.00;;;20.40
15079;BMP180;6932;51.438;5.470;2022-10-18T00:14:14;102159.00;;;20.40
15079;BMP180;6932;51.438;5.470;2022-10-18T00:16:39;102153.00;;;20.40
15079;BMP180;6932;51.438;5.470;2022-10-18T00:19:05;102151.00;;;20.30
15079;BMP180;6932;51.438;5.470;2022-10-18T00:21:31;102151.00;;;20.30
15079;BMP180;6932;51.438;5.470;2022-10-18T00:23:57;102154.00;;;20.30
15079;BMP180;6932;51.438;5.470;2022-10-18T00:26:26;102148.00;;;20.30
15079;BMP180;6932;51.438;5.470;2022-10-18T00:29:00;102157.00;;;20.30
15079;BMP180;6932;51.438;5.470;2022-10-18T00:31:35;102144.00;;;20.30
15079;BMP180;6932;51.438;5.470;2022-10-18T00:34:08;102155.00;;;20.30
15079;BMP180;6932;51.438;5.470;2022-10-18T00:36:34;102152.00;;;20.30
15079;BMP180;6932;51.438;5.470;2022-10-18T00:39:03;102164.00;;;20.30
15079;BMP180;6932;51.438;5.470;2022-10-18T00:41:32;102155.00;;;20.30
15079;BMP180;6932;51.438;5.470;2022-10-18T00:46:30;102164.00;;;20.30
15079;BMP180;6932;51.438;5.470;2022-10-18T00:49:00;102162.00;;;20.30
15079;BMP180;6932;51.438;5.470;2022-10-18T00:51:52;102163.00;;;20.30
15079;BMP180;6932;51.438;5.470;2022-10-18T00:54:22;102160.00;;;20.30
15079;BMP180;6932;51.438;5.470;2022-10-18T00:56:48;102158.00;;;20.30
15079;BMP180;6932;51.438;5.470;2022-10-18T00:59:17;102165.00;;;20.30
15079;BMP180;6932;51.438;5.470;2022-10-18T01:01:44;102161.00;;;20.30
15079;BMP180;6932;51.438;5.470;2022-10-18T01:04:11;102164.00;;;20.30
15079;BMP180;6932;51.438;5.470;2022-10-18T01:07:20;102162.00;;;20.30
15079;BMP180;6932;51.438;5.470;2022-10-18T01:16:03;102177.00;;;20.30
15079;BMP180;6932;51.438;5.470;2022-10-18T01:30:37;102177.00;;;20.30
15079;BMP180;6932;51.438;5.470;2022-10-18T01:36:32;102170.00;;;20.30
15079;BMP180;6932;51.438;5.470;2022-10-18T01:39:04;102175.00;;;20.30
15079;BMP180;6932;51.438;5.470;2022-10-18T01:41:34;102178.00;;;20.30
15079;BMP180;6932;51.438;5.470;2022-10-18T01:44:06;102178.00;;;20.30
15079;BMP180;6932;51.438;5.470;2022-10-18T01:46:35;102173.00;;;20.30
15079;BMP180;6932;51.438;5.470;2022-10-18T01:49:03;102179.00;;;20.40
15079;BMP180;6932;51.438;5.470;2022-10-18T01:51:31;102168.00;;;20.40
15079;BMP180;6932;51.438;5.470;2022-10-18T01:53:58;102167.00;;;20.40
15079;BMP180;6932;51.438;5.470;2022-10-18T02:03:09;102178.00;;;20.30
15079;BMP180;6932;51.438;5.470;2022-10-18T02:11:32;102178.00;;;20.30
15079;BMP180;6932;51.438;5.470;2022-10-18T02:14:06;102172.00;;;20.40
15079;BMP180;6932;51.438;5.470;2022-10-18T02:16:52;102173.00;;;20.40
15079;BMP180;6932;51.438;5.470;2022-10-18T02:19:35;102179.00;;;20.40
15079;BMP180;6932;51.438;5.470;2022-10-18T02:22:03;102176.00;;;20.40
15079;BMP180;6932;51.438;5.470;2022-10-18T02:24:37;102175.00;;;20.40
15079;BMP180;6932;51.438;5.470;2022-10-18T02:27:04;102178.00;;;20.40
15079;BMP180;6932;51.438;5.470;2022-10-18T02:29:31;102184.00;;;20.40
15079;BMP180;6932;51.438;5.470;2022-10-18T02:32:16;102184.00;;;20.40
15079;BMP180;6932;51.438;5.470;2022-10-18T02:35:16;102180.00;;;20.40
15079;BMP180;6932;51.438;5.470;2022-10-18T02:37:46;102177.00;;;20.40
15079;BMP180;6932;51.438;5.470;2022-10-18T02:40:14;102182.00;;;20.40
15079;BMP180;6932;51.438;5.470;2022-10-18T02:42:49;102187.00;;;20.40
15079;BMP180;6932;51.438;5.470;2022-10-18T02:45:17;102191.00;;;20.40
15079;BMP180;6932;51.438;5.470;2022-10-18T02:47:43;102191.00;;;20.40
15079;BMP180;6932;51.438;5.470;2022-10-18T02:50:09;102182.00;;;20.40
15079;BMP180;6932;51.438;5.470;2022-10-18T02:52:36;102179.00;;;20.40
15079;BMP180;6932;51.438;5.470;2022-10-18T02:55:02;102177.00;;;20.40
15079;BMP180;6932;51.438;5.470;2022-10-18T02:57:28;102180.00;;;20.40
15079;BMP180;6932;51.438;5.470;2022-10-18T02:59:54;102185.00;;;20.40
15079;BMP180;6932;51.438;5.470;2022-10-18T03:02:20;102178.00;;;20.40
15079;BMP180;6932;51.438;5.470;2022-10-18T03:04:45;102180.00;;;20.40
15079;BMP180;6932;51.438;5.470;2022-10-18T03:07:11;102183.00;;;20.40
15079;BMP180;6932;51.438;5.470;2022-10-18T03:09:37;102181.00;;;20.40
15079;BMP180;6932;51.438;5.470;2022-10-18T03:12:03;102184.00;;;20.40
15079;BMP180;6932;51.438;5.470;2022-10-18T03:14:28;102191.00;;;20.40
15079;BMP180;6932;51.438;5.470;2022-10-18T03:16:54;102177.00;;;20.40
15079;BMP180;6932;51.438;5.470;2022-10-18T03:19:20;102177.00;;;20.40
15079;BMP180;6932;51.438;5.470;2022-10-18T03:21:45;102187.00;;;20.40
15079;BMP180;6932;51.438;5.470;2022-10-18T03:24:11;102176.00;;;20.40
15079;BMP180;6932;51.438;5.470;2022-10-18T03:26:37;102181.00;;;20.40
15079;BMP180;6932;51.438;5.470;2022-10-18T03:29:02;102184.00;;;20.40
15079;BMP180;6932;51.438;5.470;2022-10-18T03:31:28;102186.00;;;20.40
15079;BMP180;6932;51.438;5.470;2022-10-18T03:33:54;102199.00;;;20.40
15079;BMP180;6932;51.438;5.470;2022-10-18T03:36:20;102194.00;;;20.40
15079;BMP180;6932;51.438;5.470;2022-10-18T03:38:45;102199.00;;;20.40
15079;BMP180;6932;51.438;5.470;2022-10-18T03:41:11;102199.00;;;20.40
15079;BMP180;6932;51.438;5.470;2022-10-18T03:43:37;102199.00;;;20.40
15079;BMP180;6932;51.438;5.470;2022-10-18T03:46:02;102191.00;;;20.40
15079;BMP180;6932;51.438;5.470;2022-10-18T03:48:28;102195.00;;;20.40
15079;BMP180;6932;51.438;5.470;2022-10-18T03:50:54;102177.00;;;20.40
15079;BMP180;6932;51.438;5.470;2022-10-18T03:53:19;102172.00;;;20.40
15079;BMP180;6932;51.438;5.470;2022-10-18T03:55:51;102185.00;;;20.40
15079;BMP180;6932;51.438;5.470;2022-10-18T03:58:17;102187.00;;;20.40
15079;BMP180;6932;51.438;5.470;2022-10-18T04:00:43;102185.00;;;20.40
15079;BMP180;6932;51.438;5.470;2022-10-18T04:03:08;102178.00;;;20.40
15079;BMP180;6932;51.438;5.470;2022-10-18T04:05:34;102178.00;;;20.40
15079;BMP180;6932;51.438;5.470;2022-10-18T04:08:01;102180.00;;;20.40
15079;BMP180;6932;51.438;5.470;2022-10-18T04:10:27;102186.00;;;20.40
15079;BMP180;6932;51.438;5.470;2022-10-18T04:12:53;102181.00;;;20.40
15079;BMP180;6932;51.438;5.470;2022-10-18T04:15:19;102182.00;;;20.40
15079;BMP180;6932;51.438;5.470;2022-10-18T04:17:45;102174.00;;;20.40
15079;BMP180;6932;51.438;5.470;2022-10-18T04:20:11;102179.00;;;20.40
15079;BMP180;6932;51.438;5.470;2022-10-18T04:22:37;102182.00;;;20.40
15079;BMP180;6932;51.438;5.470;2022-10-18T04:25:04;102189.00;;;20.40
15079;BMP180;6932;51.438;5.470;2022-10-18T04:27:30;102183.00;;;20.40
15079;BMP180;6932;51.438;5.470;2022-10-18T04:29:55;102190.00;;;20.40
15079;BMP180;6932;51.438;5.470;2022-10-18T04:32:21;102191.00;;;20.30
15079;BMP180;6932;51.438;5.470;2022-10-18T04:34:47;102186.00;;;20.30
15079;BMP180;6932;51.438;5.470;2022-10-18T04:37:12;102188.00;;;20.30
15079;BMP180;6932;51.438;5.470;2022-10-18T04:39:38;102190.00;;;20.30
15079;BMP180;6932;51.438;5.470;2022-10-18T04:42:04;102194.00;;;20.30
15079;BMP180;6932;51.438;5.470;2022-10-18T04:44:29;102193.00;;;20.30
15079;BMP180;6932;51.438;5.470;2022-10-18T04:46:55;102199.00;;;20.30
15079;BMP180;6932;51.438;5.470;2022-10-18T04:49:21;102194.00;;;20.30
15079;BMP180;6932;51.438;5.470;2022-10-18T04:51:46;102197.00;;;20.20
15079;BMP180;6932;51.438;5.470;2022-10-18T04:54:12;102204.00;;;20.30
15079;BMP180;6932;51.438;5.470;2022-10-18T04:56:38;102202.00;;;20.20
15079;BMP180;6932;51.438;5.470;2022-10-18T04:59:03;102205.00;;;20.20
15079;BMP180;6932;51.438;5.470;2022-10-18T05:01:29;102220.00;;;20.20
15079;BMP180;6932;51.438;5.470;2022-10-18T05:03:55;102205.00;;;20.20
15079;BMP180;6932;51.438;5.470;2022-10-18T05:06:21;102204.00;;;20.20
15079;BMP180;6932;51.438;5.470;2022-10-18T05:08:48;102191.00;;;20.20
15079;BMP180;6932;51.438;5.470;2022-10-18T05:11:14;102192.00;;;20.20
15079;BMP180;6932;51.438;5.470;2022-10-18T05:13:40;102203.00;;;20.10
15079;BMP180;6932;51.438;5.470;2022-10-18T05:16:06;102199.00;;;20.10
15079;BMP180;6932;51.438;5.470;2022-10-18T05:18:31;102203.00;;;20.10
15079;BMP180;6932;51.438;5.470;2022-10-18T05:20:57;102204.00;;;20.10
15079;BMP180;6932;51.438;5.470;2022-10-18T05:23:23;102199.00;;;20.10
15079;BMP180;6932;51.438;5.470;2022-10-18T05:25:49;102201.00;;;20.10
15079;BMP180;6932;51.438;5.470;2022-10-18T05:28:16;102205.00;;;20.10
15079;BMP180;6932;51.438;5.470;2022-10-18T05:30:42;102204.00;;;20.10
15079;BMP180;6932;51.438;5.470;2022-10-18T05:33:08;102200.00;;;20.10
15079;BMP180;6932;51.438;5.470;2022-10-18T05:35:34;102208.00;;;20.10
15079;BMP180;6932;51.438;5.470;2022-10-18T05:38:08;102206.00;;;20.10
15079;BMP180;6932;51.438;5.470;2022-10-18T05:40:37;102193.00;;;20.00
15079;BMP180;6932;51.438;5.470;2022-10-18T05:43:03;102211.00;;;20.00
15079;BMP180;6932;51.438;5.470;2022-10-18T05:45:29;102132.00;;;20.00
15079;BMP180;6932;51.438;5.470;2022-10-18T05:47:55;102127.00;;;20.00
15079;BMP180;6932;51.438;5.470;2022-10-18T05:50:20;102113.00;;;19.80
15079;BMP180;6932;51.438;5.470;2022-10-18T05:52:46;102122.00;;;19.70
15079;BMP180;6932;51.438;5.470;2022-10-18T05:55:12;102142.00;;;19.50
15079;BMP180;6932;51.438;5.470;2022-10-18T05:57:37;102126.00;;;19.40
15079;BMP180;6932;51.438;5.470;2022-10-18T06:00:04;102144.00;;;19.30
15079;BMP180;6932;51.438;5.470;2022-10-18T06:02:30;102146.00;;;19.20
15079;BMP180;6932;51.438;5.470;2022-10-18T06:04:55;102144.00;;;19.20
15079;BMP180;6932;51.438;5.470;2022-10-18T06:07:22;102149.00;;;19.10
15079;BMP180;6932;51.438;5.470;2022-10-18T06:09:47;102157.00;;;19.00
15079;BMP180;6932;51.438;5.470;2022-10-18T06:12:13;102246.00;;;19.00
15079;BMP180;6932;51.438;5.470;2022-10-18T06:14:39;102248.00;;;19.10
15079;BMP180;6932;51.438;5.470;2022-10-18T06:17:04;102248.00;;;19.10
15079;BMP180;6932;51.438;5.470;2022-10-18T06:19:30;102247.00;;;19.20
15079;BMP180;6932;51.438;5.470;2022-10-18T06:21:56;102248.00;;;19.30
15079;BMP180;6932;51.438;5.470;2022-10-18T06:24:21;102245.00;;;19.30
15079;BMP180;6932;51.438;5.470;2022-10-18T06:26:47;102242.00;;;19.40
15079;BMP180;6932;51.438;5.470;2022-10-18T06:29:14;102244.00;;;19.50
15079;BMP180;6932;51.438;5.470;2022-10-18T06:31:39;102252.00;;;19.50
15079;BMP180;6932;51.438;5.470;2022-10-18T06:34:05;102260.00;;;19.50
15079;BMP180;6932;51.438;5.470;2022-10-18T06:36:31;102258.00;;;19.60
15079;BMP180;6932;51.438;5.470;2022-10-18T06:38:56;102247.00;;;19.60
15079;BMP180;6932;51.438;5.470;2022-10-18T06:41:24;102245.00;;;19.60
15079;BMP180;6932;51.438;5.470;2022-10-18T06:43:52;102253.00;;;19.60
15079;BMP180;6932;51.438;5.470;2022-10-18T06:46:21;102256.00;;;19.60
15079;BMP180;6932;51.438;5.470;2022-10-18T06:48:47;102256.00;;;19.60
15079;BMP180;6932;51.438;5.470;2022-10-18T06:51:12;102260.00;;;19.70
15079;BMP180;6932;51.438;5.470;2022-10-18T06:53:39;102261.00;;;19.70
15079;BMP180;6932;51.438;5.470;2022-10-18T06:56:10;102268.00;;;19.70
15079;BMP180;6932;51.438;5.470;2022-10-18T06:58:37;102267.00;;;19.70
15079;BMP180;6932;51.438;5.470;2022-10-18T07:01:16;102274.00;;;19.70
15079;BMP180;6932;51.438;5.470;2022-10-18T07:03:43;102282.00;;;19.70
15079;BMP180;6932;51.438;5.470;2022-10-18T07:06:11;102279.00;;;19.70
15079;BMP180;6932;51.438;5.470;2022-10-18T07:08:38;102284.00;;;19.70
15079;BMP180;6932;51.438;5.470;2022-10-18T07:11:06;102299.00;;;19.80
15079;BMP180;6932;51.438;5.470;2022-10-18T07:13:33;102300.00;;;19.70
15079;BMP180;6932;51.438;5.470;2022-10-18T07:16:07;102298.00;;;19.80
15079;BMP180;6932;51.438;5.470;2022-10-18T07:18:36;102296.00;;;19.70
15079;BMP180;6932;51.438;5.470;2022-10-18T07:21:10;102312.00;;;19.70
15079;BMP180;6932;51.438;5.470;2022-10-18T07:23:42;102306.00;;;19.70
15079;BMP180;6932;51.438;5.470;2022-10-18T07:26:23;102308.00;;;19.70
15079;BMP180;6932;51.438;5.470;2022-10-18T07:29:00;102305.00;;;19.70
15079;BMP180;6932;51.438;5.470;2022-10-18T07:31:28;102313.00;;;19.70
15079;BMP180;6932;51.438;5.470;2022-10-18T07:33:53;102326.00;;;19.70
15079;BMP180;6932;51.438;5.470;2022-10-18T07:36:19;102325.00;;;19.70
15079;BMP180;6932;51.438;5.470;2022-10-18T07:38:47;102327.00;;;19.70
15079;BMP180;6932;51.438;5.470;2022-10-18T07:41:13;102331.00;;;19.80
15079;BMP180;6932;51.438;5.470;2022-10-18T07:43:46;102331.00;;;19.80
15079;BMP180;6932;51.438;5.470;2022-10-18T07:46:13;102337.00;;;19.80
15079;BMP180;6932;51.438;5.470;2022-10-18T07:48:40;102348.00;;;19.80
15079;BMP180;6932;51.438;5.470;2022-10-18T07:51:07;102348.00;;;19.80
15079;BMP180;6932;51.438;5.470;2022-10-18T07:53:33;102349.00;;;19.80
15079;BMP180;6932;51.438;5.470;2022-10-18T07:56:06;102357.00;;;19.80
15079;BMP180;6932;51.438;5.470;2022-10-18T07:58:34;102372.00;;;19.80
15079;BMP180;6932;51.438;5.470;2022-10-18T08:01:04;102364.00;;;19.80
15079;BMP180;6932;51.438;5.470;2022-10-18T08:03:30;102364.00;;;19.80
15079;BMP180;6932;51.438;5.470;2022-10-18T08:05:56;102368.00;;;19.80
15079;BMP180;6932;51.438;5.470;2022-10-18T08:08:23;102376.00;;;19.80
15079;BMP180;6932;51.438;5.470;2022-10-18T08:10:49;102382.00;;;19.80
15079;BMP180;6932;51.438;5.470;2022-10-18T08:13:15;102382.00;;;19.80
15079;BMP180;6932;51.438;5.470;2022-10-18T08:15:42;102396.00;;;19.90
15079;BMP180;6932;51.438;5.470;2022-10-18T08:18:08;102389.00;;;19.90
15079;BMP180;6932;51.438;5.470;2022-10-18T08:20:33;102389.00;;;19.90
15079;BMP180;6932;51.438;5.470;2022-10-18T08:23:02;102400.00;;;19.90
15079;BMP180;6932;51.438;5.470;2022-10-18T08:25:29;102399.00;;;20.00
15079;BMP180;6932;51.438;5.470;2022-10-18T08:27:55;102393.00;;;20.00
15079;BMP180;6932;51.438;5.470;2022-10-18T08:30:21;102396.00;;;20.10
15079;BMP180;6932;51.438;5.470;2022-10-18T08:32:47;102412.00;;;20.20
15079;BMP180;6932;51.438;5.470;2022-10-18T08:35:13;102410.00;;;20.30
15079;BMP180;6932;51.438;5.470;2022-10-18T08:37:39;102417.00;;;20.40
15079;BMP180;6932;51.438;5.470;2022-10-18T08:40:06;102409.00;;;20.50
15079;BMP180;6932;51.438;5.470;2022-10-18T08:43:06;102419.00;;;20.60
15079;BMP180;6932;51.438;5.470;2022-10-18T08:45:39;102416.00;;;20.60
15079;BMP180;6932;51.438;5.470;2022-10-18T08:48:16;102415.00;;;20.70
15079;BMP180;6932;51.438;5.470;2022-10-18T08:50:44;102413.00;;;20.80
15079;BMP180;6932;51.438;5.470;2022-10-18T08:53:24;102419.00;;;20.90
15079;BMP180;6932;51.438;5.470;2022-10-18T08:56:00;102414.00;;;21.00
15079;BMP180;6932;51.438;5.470;2022-10-18T08:58:32;102421.00;;;21.10
15079;BMP180;6932;51.438;5.470;2022-10-18T09:20:58;102430.00;;;22.20
15079;BMP180;6932;51.438;5.470;2022-10-18T09:26:09;102409.00;;;22.50
15079;BMP180;6932;51.438;5.470;2022-10-18T09:28:54;102417.00;;;22.60
15079;BMP180;6932;51.438;5.470;2022-10-18T09:31:53;102421.00;;;22.70
15079;BMP180;6932;51.438;5.470;2022-10-18T09:34:36;102419.00;;;22.80
15079;BMP180;6932;51.438;5.470;2022-10-18T09:37:09;102420.00;;;22.90
15079;BMP180;6932;51.438;5.470;2022-10-18T09:39:38;102426.00;;;23.00
15079;BMP180;6932;51.438;5.470;2022-10-18T09:42:27;102421.00;;;23.00
15079;BMP180;6932;51.438;5.470;2022-10-18T09:48:21;102434.00;;;23.00
15079;BMP180;6932;51.438;5.470;2022-10-18T09:51:00;102434.00;;;23.00
15079;BMP180;6932;51.438;5.470;2022-10-18T09:56:06;102435.00;;;23.10
15079;BMP180;6932;51.438;5.470;2022-10-18T09:58:45;102435.00;;;23.20
15079;BMP180;6932;51.438;5.470;2022-10-18T10:01:18;102436.00;;;23.20
15079;BMP180;6932;51.438;5.470;2022-10-18T10:03:45;102422.00;;;23.30
15079;BMP180;6932;51.438;5.470;2022-10-18T10:08:42;102436.00;;;23.40
15079;BMP180;6932;51.438;5.470;2022-10-18T10:11:42;102440.00;;;23.50
15079;BMP180;6932;51.438;5.470;2022-10-18T10:14:41;102435.00;;;23.50
15079;BMP180;6932;51.438;5.470;2022-10-18T10:17:23;102422.00;;;23.50
15079;BMP180;6932;51.438;5.470;2022-10-18T10:20:13;102420.00;;;23.50
15079;BMP180;6932;51.438;5.470;2022-10-18T10:22:41;102424.00;;;23.50
15079;BMP180;6932;51.438;5.470;2022-10-18T10:25:30;102424.00;;;23.50
15079;BMP180;6932;51.438;5.470;2022-10-18T10:28:10;102428.00;;;23.60
15079;BMP180;6932;51.438;5.470;2022-10-18T10:30:37;102427.00;;;23.70
15079;BMP180;6932;51.438;5.470;2022-10-18T10:33:05;102422.00;;;23.80
15079;BMP180;6932;51.438;5.470;2022-10-18T10:35:40;102422.00;;;23.90
15079;BMP180;6932;51.438;5.470;2022-10-18T10:38:06;102435.00;;;24.00
15079;BMP180;6932;51.438;5.470;2022-10-18T10:40:48;102430.00;;;24.10
15079;BMP180;6932;51.438;5.470;2022-10-18T10:43:30;102444.00;;;24.10
15079;BMP180;6932;51.438;5.470;2022-10-18T10:46:02;102455.00;;;24.20
15079;BMP180;6932;51.438;5.470;2022-10-18T10:48:33;102448.00;;;24.30
15079;BMP180;6932;51.438;5.470;2022-10-18T10:51:08;102444.00;;;24.40
15079;BMP180;6932;51.438;5.470;2022-10-18T10:54:11;102456.00;;;24.40
15079;BMP180;6932;51.438;5.470;2022-10-18T11:04:39;102460.00;;;24.40
15079;BMP180;6932;51.438;5.470;2022-10-18T11:10:14;102468.00;;;24.50
15079;BMP180;6932;51.438;5.470;2022-10-18T11:15:58;102462.00;;;24.60
15079;BMP180;6932;51.438;5.470;2022-10-18T11:18:36;102471.00;;;24.60
15079;BMP180;6932;51.438;5.470;2022-10-18T11:21:27;102470.00;;;24.60
15079;BMP180;6932;51.438;5.470;2022-10-18T11:23:54;102459.00;;;24.60
15079;BMP180;6932;51.438;5.470;2022-10-18T11:26:29;102459.00;;;24.60
15079;BMP180;6932;51.438;5.470;2022-10-18T11:35:18;102458.00;;;24.40
15079;BMP180;6932;51.438;5.470;2022-10-18T11:41:09;102470.00;;;24.20
15079;BMP180;6932;51.438;5.470;2022-10-18T11:43:54;102462.00;;;24.10
15079;BMP180;6932;51.438;5.470;2022-10-18T11:46:50;102463.00;;;24.10
15079;BMP180;6932;51.438;5.470;2022-10-18T12:01:37;102463.00;;;24.40
15079;BMP180;6932;51.438;5.470;2022-10-18T12:04:22;102456.00;;;24.40
15079;BMP180;6932;51.438;5.470;2022-10-18T12:06:53;102453.00;;;24.40
15079;BMP180;6932;51.438;5.470;2022-10-18T12:09:40;102451.00;;;24.40
15079;BMP180;6932;51.438;5.470;2022-10-18T12:12:26;102467.00;;;24.40
15079;BMP180;6932;51.438;5.470;2022-10-18T12:15:04;102460.00;;;24.40
15079;BMP180;6932;51.438;5.470;2022-10-18T12:17:44;102446.00;;;24.40
15079;BMP180;6932;51.438;5.470;2022-10-18T12:23:01;102454.00;;;24.40
15079;BMP180;6932;51.438;5.470;2022-10-18T12:25:33;102433.00;;;24.40
15079;BMP180;6932;51.438;5.470;2022-10-18T12:29:01;102433.00;;;24.40
15079;BMP180;6932;51.438;5.470;2022-10-18T12:33:49;102448.00;;;24.40
15079;BMP180;6932;51.438;5.470;2022-10-18T12:39:18;102436.00;;;24.40
15079;BMP180;6932;51.438;5.470;2022-10-18T12:41:47;102439.00;;;24.40
15079;BMP180;6932;51.438;5.470;2022-10-18T12:44:30;102440.00;;;24.40
15079;BMP180;6932;51.438;5.470;2022-10-18T12:47:01;102441.00;;;24.40
15079;BMP180;6932;51.438;5.470;2022-10-18T12:49:32;102433.00;;;24.50
15079;BMP180;6932;51.438;5.470;2022-10-18T12:52:03;102434.00;;;24.40
15079;BMP180;6932;51.438;5.470;2022-10-18T12:54:38;102440.00;;;24.40
15079;BMP180;6932;51.438;5.470;2022-10-18T12:57:17;102435.00;;;24.40
15079;BMP180;6932;51.438;5.470;2022-10-18T12:59:46;102430.00;;;24.40
15079;BMP180;6932;51.438;5.470;2022-10-18T13:02:22;102434.00;;;24.40
15079;BMP180;6932;51.438;5.470;2022-10-18T13:04:49;102432.00;;;24.30
15079;BMP180;6932;51.438;5.470;2022-10-18T13:15:45;102428.00;;;24.30
15079;BMP180;6932;51.438;5.470;2022-10-18T13:18:32;102423.00;;;24.20
15079;BMP180;6932;51.438;5.470;2022-10-18T13:24:33;102427.00;;;24.10
15079;BMP180;6932;51.438;5.470;2022-10-18T13:27:37;102415.00;;;24.10
15079;BMP180;6932;51.438;5.470;2022-10-18T13:33:35;102418.00;;;24.00
15079;BMP180;6932;51.438;5.470;2022-10-18T13:36:24;102422.00;;;24.00
15079;BMP180;6932;51.438;5.470;2022-10-18T13:44:28;102425.00;;;24.00
15079;BMP180;6932;51.438;5.470;2022-10-18T13:49:52;102433.00;;;23.90
15079;BMP180;6932;51.438;5.470;2022-10-18T13:52:55;102433.00;;;23.90
15079;BMP180;6932;51.438;5.470;2022-10-18T13:55:45;102428.00;;;23.80
15079;BMP180;6932;51.438;5.470;2022-10-18T14:01:27;102441.00;;;23.80
15079;BMP180;6932;51.438;5.470;2022-10-18T14:06:51;102435.00;;;23.70
15079;BMP180;6932;51.438;5.470;2022-10-18T14:09:23;102436.00;;;23.70
15079;BMP180;6932;51.438;5.470;2022-10-18T14:12:02;102433.00;;;23.70
15079;BMP180;6932;51.438;5.470;2022-10-18T14:15:30;102428.00;;;23.70
15079;BMP180;6932;51.438;5.470;2022-10-18T14:17:55;102433.00;;;23.70
15079;BMP180;6932;51.438;5.470;2022-10-18T14:20:37;102433.00;;;23.70
15079;BMP180;6932;51.438;5.470;2022-10-18T14:23:18;102433.00;;;23.60
15079;BMP180;6932;51.438;5.470;2022-10-18T14:25:44;102428.00;;;23.60
15079;BMP180;6932;51.438;5.470;2022-10-18T14:28:20;102438.00;;;23.60
15079;BMP180;6932;51.438;5.470;2022-10-18T14:31:01;102441.00;;;23.60
15079;BMP180;6932;51.438;5.470;2022-10-18T14:33:36;102437.00;;;23.60
15079;BMP180;6932;51.438;5.470;2022-10-18T14:36:11;102429.00;;;23.60
15079;BMP180;6932;51.438;5.470;2022-10-18T14:38:54;102428.00;;;23.60
15079;BMP180;6932;51.438;5.470;2022-10-18T14:41:24;102444.00;;;23.50
15079;BMP180;6932;51.438;5.470;2022-10-18T14:44:10;102439.00;;;23.60
15079;BMP180;6932;51.438;5.470;2022-10-18T14:49:22;102435.00;;;23.50
15079;BMP180;6932;51.438;5.470;2022-10-18T14:51:52;102431.00;;;23.50
15079;BMP180;6932;51.438;5.470;2022-10-18T14:54:38;102432.00;;;23.50
15079;BMP180;6932;51.438;5.470;2022-10-18T14:57:05;102430.00;;;23.50
15079;BMP180;6932;51.438;5.470;2022-10-18T14:59:43;102430.00;;;23.50
15079;BMP180;6932;51.438;5.470;2022-10-18T15:02:26;102425.00;;;23.50
15079;BMP180;6932;51.438;5.470;2022-10-18T15:07:42;102437.00;;;23.50
15079;BMP180;6932;51.438;5.470;2022-10-18T15:10:17;102431.00;;;23.50
15079;BMP180;6932;51.438;5.470;2022-10-18T15:12:44;102435.00;;;23.40
15079;BMP180;6932;51.438;5.470;2022-10-18T15:15:20;102434.00;;;23.40
15079;BMP180;6932;51.438;5.470;2022-10-18T15:17:47;102438.00;;;23.30
15079;BMP180;6932;51.438;5.470;2022-10-18T15:20:36;102442.00;;;23.30
15079;BMP180;6932;51.438;5.470;2022-10-18T15:23:27;102430.00;;;23.30
15079;BMP180;6932;51.438;5.470;2022-10-18T15:26:09;102429.00;;;23.20
15079;BMP180;6932;51.438;5.470;2022-10-18T15:28:44;102429.00;;;23.20
15079;BMP180;6932;51.438;5.470;2022-10-18T15:31:29;102432.00;;;23.20
15079;BMP180;6932;51.438;5.470;2022-10-18T15:34:18;102432.00;;;23.20
15079;BMP180;6932;51.438;5.470;2022-10-18T15:36:45;102431.00;;;23.10
15079;BMP180;6932;51.438;5.470;2022-10-18T15:39:21;102423.00;;;23.10
15079;BMP180;6932;51.438;5.470;2022-10-18T15:42:35;102435.00;;;23.00
15079;BMP180;6932;51.438;5.470;2022-10-18T15:45:01;102425.00;;;23.00
15079;BMP180;6932;51.438;5.470;2022-10-18T15:47:27;102424.00;;;23.00
15079;BMP180;6932;51.438;5.470;2022-10-18T15:49:56;102432.00;;;23.00
15079;BMP180;6932;51.438;5.470;2022-10-18T15:54:55;102429.00;;;22.90
15079;BMP180;6932;51.438;5.470;2022-10-18T15:57:23;102350.00;;;22.90
15079;BMP180;6932;51.438;5.470;2022-10-18T16:00:04;102340.00;;;22.70
15079;BMP180;6932;51.438;5.470;2022-10-18T16:02:30;102353.00;;;22.50
15079;BMP180;6932;51.438;5.470;2022-10-18T16:04:59;102354.00;;;22.30
15079;BMP180;6932;51.438;5.470;2022-10-18T16:07:26;102348.00;;;22.20
15079;BMP180;6932;51.438;5.470;2022-10-18T16:09:51;102336.00;;;22.10
15079;BMP180;6932;51.438;5.470;2022-10-18T16:12:17;102344.00;;;22.00
15079;BMP180;6932;51.438;5.470;2022-10-18T16:14:43;102348.00;;;21.90
15079;BMP180;6932;51.438;5.470;2022-10-18T16:17:10;102341.00;;;21.80
15079;BMP180;6932;51.438;5.470;2022-10-18T16:19:43;102433.00;;;21.70
15079;BMP180;6932;51.438;5.470;2022-10-18T16:22:12;102444.00;;;21.80
15079;BMP180;6932;51.438;5.470;2022-10-18T16:24:39;102453.00;;;21.80
15079;BMP180;6932;51.438;5.470;2022-10-18T16:27:05;102437.00;;;21.90
15079;BMP180;6932;51.438;5.470;2022-10-18T16:29:31;102441.00;;;21.90
15079;BMP180;6932;51.438;5.470;2022-10-18T16:31:58;102447.00;;;21.90
15079;BMP180;6932;51.438;5.470;2022-10-18T16:34:25;102447.00;;;21.90
15079;BMP180;6932;51.438;5.470;2022-10-18T16:36:51;102444.00;;;21.90
15079;BMP180;6932;51.438;5.470;2022-10-18T16:39:19;102449.00;;;22.00
15079;BMP180;6932;51.438;5.470;2022-10-18T16:41:46;102461.00;;;21.90
15079;BMP180;6932;51.438;5.470;2022-10-18T16:44:13;102469.00;;;21.90
15079;BMP180;6932;51.438;5.470;2022-10-18T16:46:40;102476.00;;;21.90
15079;BMP180;6932;51.438;5.470;2022-10-18T16:49:06;102472.00;;;21.90
15079;BMP180;6932;51.438;5.470;2022-10-18T16:51:32;102469.00;;;21.90
15079;BMP180;6932;51.438;5.470;2022-10-18T16:53:58;102487.00;;;21.90
15079;BMP180;6932;51.438;5.470;2022-10-18T16:56:29;102485.00;;;21.90
15079;BMP180;6932;51.438;5.470;2022-10-18T16:58:56;102477.00;;;21.80
15079;BMP180;6932;51.438;5.470;2022-10-18T17:01:23;102487.00;;;21.80
15079;BMP180;6932;51.438;5.470;2022-10-18T17:03:50;102493.00;;;21.70